sensor_id;sensor_type;location;lat;lon;timestamp;P1;durP1;ratioP1;P2;durP2;ratioP2
12367;SDS011;6248;49.812;6.620;2023-03-12T00:00:05;14.57;;;9.57;;
12367;SDS011;6248;49.812;6.620;2023-03-12T00:02:36;12.80;;;9.37;;
12367;SDS011;6248;49.812;6.620;2023-03-12T00:05:04;12.03;;;8.20;;
12367;SDS011;6248;49.812;6.620;2023-03-12T00:07:31;10.20;;;7.70;;
12367;SDS011;6248;49.812;6.620;2023-03-12T00:10:00;11.63;;;8.17;;
12367;SDS011;6248;49.812;6.620;2023-03-12T00:12:27;14.30;;;8.43;;
12367;SDS011;6248;49.812;6.620;2023-03-12T00:14:54;15.03;;;9.33;;
12367;SDS011;6248;49.812;6.620;2023-03-12T00:17:21;11.53;;;8.87;;
12367;SDS011;6248;49.812;6.620;2023-03-12T00:19:51;14.57;;;9.30;;
12367;SDS011;6248;49.812;6.620;2023-03-12T00:22:18;11.07;;;7.50;;
12367;SDS011;6248;49.812;6.620;2023-03-12T00:24:48;9.87;;;6.80;;
12367;SDS011;6248;49.812;6.620;2023-03-12T00:27:16;8.83;;;5.83;;
12367;SDS011;6248;49.812;6.620;2023-03-12T00:29:43;10.90;;;6.97;;
12367;SDS011;6248;49.812;6.620;2023-03-12T00:32:10;9.40;;;7.07;;
12367;SDS011;6248;49.812;6.620;2023-03-12T00:34:37;13.27;;;7.00;;
12367;SDS011;6248;49.812;6.620;2023-03-12T00:37:06;7.40;;;5.20;;
12367;SDS011;6248;49.812;6.620;2023-03-12T00:39:33;5.93;;;4.37;;
12367;SDS011;6248;49.812;6.620;2023-03-12T00:42:00;7.47;;;4.17;;
12367;SDS011;6248;49.812;6.620;2023-03-12T00:44:27;9.43;;;4.53;;
12367;SDS011;6248;49.812;6.620;2023-03-12T00:46:54;7.40;;;4.90;;
12367;SDS011;6248;49.812;6.620;2023-03-12T00:49:22;5.80;;;4.43;;
12367;SDS011;6248;49.812;6.620;2023-03-12T00:51:49;7.77;;;5.10;;
12367;SDS011;6248;49.812;6.620;2023-03-12T00:54:17;7.33;;;4.87;;
12367;SDS011;6248;49.812;6.620;2023-03-12T00:56:44;7.20;;;4.20;;
12367;SDS011;6248;49.812;6.620;2023-03-12T00:59:12;6.23;;;4.03;;
12367;SDS011;6248;49.812;6.620;2023-03-12T01:01:39;5.77;;;3.87;;
12367;SDS011;6248;49.812;6.620;2023-03-12T01:04:06;4.13;;;3.60;;
12367;SDS011;6248;49.812;6.620;2023-03-12T01:06:33;7.80;;;4.50;;
12367;SDS011;6248;49.812;6.620;2023-03-12T01:09:01;5.80;;;3.70;;
12367;SDS011;6248;49.812;6.620;2023-03-12T01:11:36;6.40;;;4.23;;
12367;SDS011;6248;49.812;6.620;2023-03-12T01:14:04;5.20;;;3.50;;
12367;SDS011;6248;49.812;6.620;2023-03-12T01:16:32;5.47;;;3.43;;
12367;SDS011;6248;49.812;6.620;2023-03-12T01:18:59;6.93;;;3.97;;
12367;SDS011;6248;49.812;6.620;2023-03-12T01:21:27;5.80;;;3.60;;
12367;SDS011;6248;49.812;6.620;2023-03-12T01:23:55;4.23;;;3.47;;
12367;SDS011;6248;49.812;6.620;2023-03-12T01:26:22;7.07;;;3.40;;
12367;SDS011;6248;49.812;6.620;2023-03-12T01:28:51;5.00;;;3.60;;
12367;SDS011;6248;49.812;6.620;2023-03-12T01:31:18;3.43;;;2.93;;
12367;SDS011;6248;49.812;6.620;2023-03-12T01:33:47;3.73;;;3.00;;
12367;SDS011;6248;49.812;6.620;2023-03-12T01:36:15;4.33;;;3.20;;
12367;SDS011;6248;49.812;6.620;2023-03-12T01:38:43;6.70;;;4.70;;
12367;SDS011;6248;49.812;6.620;2023-03-12T01:41:13;8.80;;;5.27;;
12367;SDS011;6248;49.812;6.620;2023-03-12T01:43:40;9.37;;;5.93;;
12367;SDS011;6248;49.812;6.620;2023-03-12T01:46:25;6.80;;;4.60;;
12367;SDS011;6248;49.812;6.620;2023-03-12T01:48:54;10.10;;;5.10;;
12367;SDS011;6248;49.812;6.620;2023-03-12T01:51:21;8.00;;;5.77;;
12367;SDS011;6248;49.812;6.620;2023-03-12T01:53:50;8.10;;;5.23;;
12367;SDS011;6248;49.812;6.620;2023-03-12T01:56:19;11.07;;;5.67;;
12367;SDS011;6248;49.812;6.620;2023-03-12T01:58:47;5.97;;;4.83;;
12367;SDS011;6248;49.812;6.620;2023-03-12T02:01:15;7.43;;;4.80;;
12367;SDS011;6248;49.812;6.620;2023-03-12T02:03:45;6.60;;;4.50;;
12367;SDS011;6248;49.812;6.620;2023-03-12T02:06:14;6.73;;;4.23;;
12367;SDS011;6248;49.812;6.620;2023-03-12T02:08:43;7.43;;;3.80;;
12367;SDS011;6248;49.812;6.620;2023-03-12T02:11:11;4.97;;;3.70;;
12367;SDS011;6248;49.812;6.620;2023-03-12T02:13:38;6.10;;;4.13;;
12367;SDS011;6248;49.812;6.620;2023-03-12T02:16:09;5.30;;;4.00;;
12367;SDS011;6248;49.812;6.620;2023-03-12T02:18:36;4.20;;;3.47;;
12367;SDS011;6248;49.812;6.620;2023-03-12T02:21:07;6.90;;;3.70;;
12367;SDS011;6248;49.812;6.620;2023-03-12T02:23:37;7.20;;;4.07;;
12367;SDS011;6248;49.812;6.620;2023-03-12T02:26:08;5.40;;;3.73;;
12367;SDS011;6248;49.812;6.620;2023-03-12T02:28:35;5.63;;;4.13;;
12367;SDS011;6248;49.812;6.620;2023-03-12T02:31:10;5.70;;;4.00;;
12367;SDS011;6248;49.812;6.620;2023-03-12T02:33:38;6.30;;;4.20;;
12367;SDS011;6248;49.812;6.620;2023-03-12T02:36:05;5.70;;;3.77;;
12367;SDS011;6248;49.812;6.620;2023-03-12T02:38:37;6.97;;;3.97;;
12367;SDS011;6248;49.812;6.620;2023-03-12T02:41:09;7.83;;;3.90;;
12367;SDS011;6248;49.812;6.620;2023-03-12T02:43:36;5.97;;;3.77;;
12367;SDS011;6248;49.812;6.620;2023-03-12T02:46:04;5.97;;;3.80;;
12367;SDS011;6248;49.812;6.620;2023-03-12T02:48:32;4.50;;;4.10;;
12367;SDS011;6248;49.812;6.620;2023-03-12T02:50:59;5.77;;;3.43;;
12367;SDS011;6248;49.812;6.620;2023-03-12T02:53:27;6.20;;;4.10;;
12367;SDS011;6248;49.812;6.620;2023-03-12T02:55:54;5.90;;;4.10;;
12367;SDS011;6248;49.812;6.620;2023-03-12T02:58:23;7.87;;;5.63;;
12367;SDS011;6248;49.812;6.620;2023-03-12T03:00:50;6.60;;;4.70;;
12367;SDS011;6248;49.812;6.620;2023-03-12T03:03:17;11.40;;;6.03;;
12367;SDS011;6248;49.812;6.620;2023-03-12T03:05:44;8.53;;;5.53;;
12367;SDS011;6248;49.812;6.620;2023-03-12T03:08:11;6.00;;;4.23;;
12367;SDS011;6248;49.812;6.620;2023-03-12T03:10:38;6.43;;;3.73;;
12367;SDS011;6248;49.812;6.620;2023-03-12T03:13:06;6.83;;;4.00;;
12367;SDS011;6248;49.812;6.620;2023-03-12T03:15:34;5.10;;;2.90;;
12367;SDS011;6248;49.812;6.620;2023-03-12T03:18:02;4.73;;;2.83;;
12367;SDS011;6248;49.812;6.620;2023-03-12T03:20:30;4.67;;;2.40;;
12367;SDS011;6248;49.812;6.620;2023-03-12T03:22:57;5.47;;;2.50;;
12367;SDS011;6248;49.812;6.620;2023-03-12T03:25:24;5.57;;;3.50;;
12367;SDS011;6248;49.812;6.620;2023-03-12T03:27:51;6.93;;;4.37;;
12367;SDS011;6248;49.812;6.620;2023-03-12T03:30:19;4.50;;;3.40;;
12367;SDS011;6248;49.812;6.620;2023-03-12T03:32:48;7.50;;;4.27;;
12367;SDS011;6248;49.812;6.620;2023-03-12T03:35:15;7.70;;;3.67;;
12367;SDS011;6248;49.812;6.620;2023-03-12T03:37:42;5.43;;;3.20;;
12367;SDS011;6248;49.812;6.620;2023-03-12T03:40:10;4.27;;;3.23;;
12367;SDS011;6248;49.812;6.620;2023-03-12T03:42:38;4.33;;;2.80;;
12367;SDS011;6248;49.812;6.620;2023-03-12T03:45:06;4.33;;;2.47;;
12367;SDS011;6248;49.812;6.620;2023-03-12T03:47:33;5.73;;;2.90;;
12367;SDS011;6248;49.812;6.620;2023-03-12T03:50:02;4.33;;;2.50;;
12367;SDS011;6248;49.812;6.620;2023-03-12T03:52:29;5.17;;;2.87;;
12367;SDS011;6248;49.812;6.620;2023-03-12T03:54:56;4.97;;;2.43;;
12367;SDS011;6248;49.812;6.620;2023-03-12T03:57:24;4.00;;;2.50;;
12367;SDS011;6248;49.812;6.620;2023-03-12T03:59:51;3.53;;;2.70;;
12367;SDS011;6248;49.812;6.620;2023-03-12T04:02:19;6.43;;;2.40;;
12367;SDS011;6248;49.812;6.620;2023-03-12T04:04:46;4.50;;;2.60;;
12367;SDS011;6248;49.812;6.620;2023-03-12T04:07:17;3.43;;;2.40;;
12367;SDS011;6248;49.812;6.620;2023-03-12T04:09:45;3.90;;;2.67;;
12367;SDS011;6248;49.812;6.620;2023-03-12T04:12:12;3.60;;;2.53;;
12367;SDS011;6248;49.812;6.620;2023-03-12T04:14:39;3.67;;;2.40;;
12367;SDS011;6248;49.812;6.620;2023-03-12T04:17:06;3.57;;;2.63;;
12367;SDS011;6248;49.812;6.620;2023-03-12T04:19:34;4.63;;;3.30;;
12367;SDS011;6248;49.812;6.620;2023-03-12T04:22:01;4.77;;;2.70;;
12367;SDS011;6248;49.812;6.620;2023-03-12T04:24:29;3.50;;;2.47;;
12367;SDS011;6248;49.812;6.620;2023-03-12T04:26:57;3.10;;;2.80;;
12367;SDS011;6248;49.812;6.620;2023-03-12T04:29:24;4.40;;;2.50;;
12367;SDS011;6248;49.812;6.620;2023-03-12T04:31:51;5.10;;;2.63;;
12367;SDS011;6248;49.812;6.620;2023-03-12T04:34:19;2.80;;;2.50;;
12367;SDS011;6248;49.812;6.620;2023-03-12T04:36:46;2.97;;;2.50;;
12367;SDS011;6248;49.812;6.620;2023-03-12T04:39:16;5.40;;;2.70;;
12367;SDS011;6248;49.812;6.620;2023-03-12T04:41:45;8.53;;;2.70;;
12367;SDS011;6248;49.812;6.620;2023-03-12T04:44:12;5.50;;;2.47;;
12367;SDS011;6248;49.812;6.620;2023-03-12T04:46:39;4.23;;;2.33;;
12367;SDS011;6248;49.812;6.620;2023-03-12T04:49:06;5.37;;;2.63;;
12367;SDS011;6248;49.812;6.620;2023-03-12T04:51:34;7.17;;;2.80;;
12367;SDS011;6248;49.812;6.620;2023-03-12T04:54:01;4.63;;;2.40;;
12367;SDS011;6248;49.812;6.620;2023-03-12T04:56:31;5.57;;;2.70;;
12367;SDS011;6248;49.812;6.620;2023-03-12T04:59:03;7.27;;;2.90;;
12367;SDS011;6248;49.812;6.620;2023-03-12T05:01:31;5.27;;;2.90;;
12367;SDS011;6248;49.812;6.620;2023-03-12T05:03:59;5.53;;;3.03;;
12367;SDS011;6248;49.812;6.620;2023-03-12T05:06:26;8.40;;;3.17;;
12367;SDS011;6248;49.812;6.620;2023-03-12T05:08:54;7.97;;;3.37;;
12367;SDS011;6248;49.812;6.620;2023-03-12T05:11:21;4.43;;;3.07;;
12367;SDS011;6248;49.812;6.620;2023-03-12T05:13:48;6.67;;;3.27;;
12367;SDS011;6248;49.812;6.620;2023-03-12T05:16:19;5.13;;;3.00;;
12367;SDS011;6248;49.812;6.620;2023-03-12T05:18:46;7.37;;;3.43;;
12367;SDS011;6248;49.812;6.620;2023-03-12T05:21:14;5.77;;;3.33;;
12367;SDS011;6248;49.812;6.620;2023-03-12T05:23:44;4.47;;;3.43;;
12367;SDS011;6248;49.812;6.620;2023-03-12T05:26:15;7.37;;;4.33;;
12367;SDS011;6248;49.812;6.620;2023-03-12T05:28:42;8.77;;;4.23;;
12367;SDS011;6248;49.812;6.620;2023-03-12T05:31:09;5.27;;;3.83;;
12367;SDS011;6248;49.812;6.620;2023-03-12T05:33:38;5.27;;;3.37;;
12367;SDS011;6248;49.812;6.620;2023-03-12T05:36:06;6.57;;;4.23;;
12367;SDS011;6248;49.812;6.620;2023-03-12T05:38:33;7.87;;;3.50;;
12367;SDS011;6248;49.812;6.620;2023-03-12T05:41:01;6.20;;;3.60;;
12367;SDS011;6248;49.812;6.620;2023-03-12T05:43:28;4.90;;;3.77;;
12367;SDS011;6248;49.812;6.620;2023-03-12T05:45:57;5.23;;;3.33;;
12367;SDS011;6248;49.812;6.620;2023-03-12T05:48:24;7.67;;;4.80;;
12367;SDS011;6248;49.812;6.620;2023-03-12T05:50:53;7.23;;;4.73;;
12367;SDS011;6248;49.812;6.620;2023-03-12T05:53:20;7.27;;;4.97;;
12367;SDS011;6248;49.812;6.620;2023-03-12T05:55:47;10.30;;;7.60;;
12367;SDS011;6248;49.812;6.620;2023-03-12T05:58:14;8.80;;;7.00;;
12367;SDS011;6248;49.812;6.620;2023-03-12T06:00:42;9.67;;;8.60;;
12367;SDS011;6248;49.812;6.620;2023-03-12T06:03:09;11.83;;;8.67;;
12367;SDS011;6248;49.812;6.620;2023-03-12T06:05:37;10.03;;;8.10;;
12367;SDS011;6248;49.812;6.620;2023-03-12T06:08:06;9.30;;;7.77;;
12367;SDS011;6248;49.812;6.620;2023-03-12T06:10:33;12.70;;;8.70;;
12367;SDS011;6248;49.812;6.620;2023-03-12T06:13:00;11.80;;;9.27;;
12367;SDS011;6248;49.812;6.620;2023-03-12T06:15:27;12.83;;;9.17;;
12367;SDS011;6248;49.812;6.620;2023-03-12T06:17:54;11.43;;;9.80;;
12367;SDS011;6248;49.812;6.620;2023-03-12T06:20:22;14.13;;;10.83;;
12367;SDS011;6248;49.812;6.620;2023-03-12T06:22:49;14.20;;;11.10;;
12367;SDS011;6248;49.812;6.620;2023-03-12T06:25:17;10.97;;;8.73;;
12367;SDS011;6248;49.812;6.620;2023-03-12T06:27:51;12.40;;;9.60;;
12367;SDS011;6248;49.812;6.620;2023-03-12T06:30:18;12.17;;;8.80;;
12367;SDS011;6248;49.812;6.620;2023-03-12T06:32:45;12.47;;;9.37;;
12367;SDS011;6248;49.812;6.620;2023-03-12T06:35:12;13.23;;;9.03;;
12367;SDS011;6248;49.812;6.620;2023-03-12T06:37:39;11.33;;;8.80;;
12367;SDS011;6248;49.812;6.620;2023-03-12T06:40:07;13.30;;;9.13;;
12367;SDS011;6248;49.812;6.620;2023-03-12T06:42:36;10.03;;;8.40;;
12367;SDS011;6248;49.812;6.620;2023-03-12T06:45:03;13.63;;;11.47;;
12367;SDS011;6248;49.812;6.620;2023-03-12T06:47:31;12.10;;;10.40;;
12367;SDS011;6248;49.812;6.620;2023-03-12T06:49:58;17.20;;;11.97;;
12367;SDS011;6248;49.812;6.620;2023-03-12T06:52:31;15.07;;;11.80;;
12367;SDS011;6248;49.812;6.620;2023-03-12T06:54:58;15.97;;;10.73;;
12367;SDS011;6248;49.812;6.620;2023-03-12T06:57:25;11.93;;;9.50;;
12367;SDS011;6248;49.812;6.620;2023-03-12T06:59:54;13.53;;;10.70;;
12367;SDS011;6248;49.812;6.620;2023-03-12T07:02:21;12.00;;;9.37;;
12367;SDS011;6248;49.812;6.620;2023-03-12T07:04:48;12.30;;;9.60;;
12367;SDS011;6248;49.812;6.620;2023-03-12T07:07:15;12.73;;;10.53;;
12367;SDS011;6248;49.812;6.620;2023-03-12T07:09:44;13.90;;;11.73;;
12367;SDS011;6248;49.812;6.620;2023-03-12T07:12:11;16.73;;;12.30;;
12367;SDS011;6248;49.812;6.620;2023-03-12T07:14:38;16.03;;;11.70;;
12367;SDS011;6248;49.812;6.620;2023-03-12T07:17:06;18.43;;;12.13;;
12367;SDS011;6248;49.812;6.620;2023-03-12T07:19:34;14.17;;;12.43;;
12367;SDS011;6248;49.812;6.620;2023-03-12T07:22:01;17.53;;;13.53;;
12367;SDS011;6248;49.812;6.620;2023-03-12T07:24:28;19.90;;;13.70;;
12367;SDS011;6248;49.812;6.620;2023-03-12T07:26:55;22.57;;;14.23;;
12367;SDS011;6248;49.812;6.620;2023-03-12T07:29:22;20.33;;;14.17;;
12367;SDS011;6248;49.812;6.620;2023-03-12T07:31:49;18.20;;;12.40;;
12367;SDS011;6248;49.812;6.620;2023-03-12T07:34:18;19.93;;;13.83;;
12367;SDS011;6248;49.812;6.620;2023-03-12T07:36:45;19.20;;;13.60;;
12367;SDS011;6248;49.812;6.620;2023-03-12T07:39:12;17.40;;;13.50;;
12367;SDS011;6248;49.812;6.620;2023-03-12T07:41:39;19.80;;;13.80;;
12367;SDS011;6248;49.812;6.620;2023-03-12T07:44:06;21.63;;;13.97;;
12367;SDS011;6248;49.812;6.620;2023-03-12T07:46:34;16.57;;;13.20;;
12367;SDS011;6248;49.812;6.620;2023-03-12T07:49:01;20.03;;;14.10;;
12367;SDS011;6248;49.812;6.620;2023-03-12T07:51:29;34.37;;;14.37;;
12367;SDS011;6248;49.812;6.620;2023-03-12T07:53:56;15.37;;;12.63;;
12367;SDS011;6248;49.812;6.620;2023-03-12T07:56:24;16.40;;;12.77;;
12367;SDS011;6248;49.812;6.620;2023-03-12T07:58:51;18.53;;;13.33;;
12367;SDS011;6248;49.812;6.620;2023-03-12T08:01:18;18.53;;;14.87;;
12367;SDS011;6248;49.812;6.620;2023-03-12T08:03:45;22.27;;;15.20;;
12367;SDS011;6248;49.812;6.620;2023-03-12T08:06:12;17.70;;;13.93;;
12367;SDS011;6248;49.812;6.620;2023-03-12T08:08:41;20.43;;;13.20;;
12367;SDS011;6248;49.812;6.620;2023-03-12T08:11:08;24.40;;;13.53;;
12367;SDS011;6248;49.812;6.620;2023-03-12T08:13:35;24.73;;;13.63;;
12367;SDS011;6248;49.812;6.620;2023-03-12T08:16:02;20.07;;;13.23;;
12367;SDS011;6248;49.812;6.620;2023-03-12T08:18:30;16.63;;;12.93;;
12367;SDS011;6248;49.812;6.620;2023-03-12T08:20:57;22.27;;;13.13;;
12367;SDS011;6248;49.812;6.620;2023-03-12T08:23:24;18.37;;;13.37;;
12367;SDS011;6248;49.812;6.620;2023-03-12T08:25:53;19.70;;;14.43;;
12367;SDS011;6248;49.812;6.620;2023-03-12T08:28:21;28.87;;;14.23;;
12367;SDS011;6248;49.812;6.620;2023-03-12T08:30:49;20.33;;;13.83;;
12367;SDS011;6248;49.812;6.620;2023-03-12T08:33:16;24.20;;;13.43;;
12367;SDS011;6248;49.812;6.620;2023-03-12T08:35:43;19.77;;;13.73;;
12367;SDS011;6248;49.812;6.620;2023-03-12T08:38:11;36.47;;;14.23;;
12367;SDS011;6248;49.812;6.620;2023-03-12T08:40:38;17.90;;;13.53;;
12367;SDS011;6248;49.812;6.620;2023-03-12T08:43:07;23.70;;;13.87;;
12367;SDS011;6248;49.812;6.620;2023-03-12T08:45:34;28.13;;;13.83;;
12367;SDS011;6248;49.812;6.620;2023-03-12T08:48:01;23.67;;;14.00;;
12367;SDS011;6248;49.812;6.620;2023-03-12T08:50:28;31.03;;;13.93;;
12367;SDS011;6248;49.812;6.620;2023-03-12T08:52:56;19.50;;;13.47;;
12367;SDS011;6248;49.812;6.620;2023-03-12T08:55:23;21.47;;;12.50;;
12367;SDS011;6248;49.812;6.620;2023-03-12T08:57:52;17.27;;;11.60;;
12367;SDS011;6248;49.812;6.620;2023-03-12T09:00:21;15.40;;;11.60;;
12367;SDS011;6248;49.812;6.620;2023-03-12T09:02:48;11.27;;;10.07;;
12367;SDS011;6248;49.812;6.620;2023-03-12T09:05:17;16.47;;;11.67;;
12367;SDS011;6248;49.812;6.620;2023-03-12T09:07:45;18.17;;;11.20;;
12367;SDS011;6248;49.812;6.620;2023-03-12T09:10:14;14.87;;;11.90;;
12367;SDS011;6248;49.812;6.620;2023-03-12T09:12:41;16.27;;;11.67;;
12367;SDS011;6248;49.812;6.620;2023-03-12T09:15:08;15.73;;;12.57;;
12367;SDS011;6248;49.812;6.620;2023-03-12T09:17:37;14.20;;;12.50;;
12367;SDS011;6248;49.812;6.620;2023-03-12T09:20:05;14.00;;;12.43;;
12367;SDS011;6248;49.812;6.620;2023-03-12T09:22:33;16.13;;;12.37;;
12367;SDS011;6248;49.812;6.620;2023-03-12T09:25:01;16.60;;;11.70;;
12367;SDS011;6248;49.812;6.620;2023-03-12T09:27:28;13.17;;;11.50;;
12367;SDS011;6248;49.812;6.620;2023-03-12T09:29:55;12.50;;;11.20;;
12367;SDS011;6248;49.812;6.620;2023-03-12T09:32:22;15.17;;;11.60;;
12367;SDS011;6248;49.812;6.620;2023-03-12T09:34:52;14.63;;;11.87;;
12367;SDS011;6248;49.812;6.620;2023-03-12T09:37:19;21.23;;;10.67;;
12367;SDS011;6248;49.812;6.620;2023-03-12T09:39:48;13.40;;;10.57;;
12367;SDS011;6248;49.812;6.620;2023-03-12T09:42:18;11.60;;;10.47;;
12367;SDS011;6248;49.812;6.620;2023-03-12T09:44:47;13.17;;;10.70;;
12367;SDS011;6248;49.812;6.620;2023-03-12T09:47:15;13.13;;;10.70;;
12367;SDS011;6248;49.812;6.620;2023-03-12T09:49:44;12.07;;;9.57;;
12367;SDS011;6248;49.812;6.620;2023-03-12T09:52:17;14.10;;;9.83;;
12367;SDS011;6248;49.812;6.620;2023-03-12T09:54:48;13.10;;;10.17;;
12367;SDS011;6248;49.812;6.620;2023-03-12T09:57:19;15.03;;;10.23;;
12367;SDS011;6248;49.812;6.620;2023-03-12T09:59:48;12.67;;;9.37;;
12367;SDS011;6248;49.812;6.620;2023-03-12T10:02:25;11.77;;;9.70;;
12367;SDS011;6248;49.812;6.620;2023-03-12T10:04:56;13.23;;;9.60;;
12367;SDS011;6248;49.812;6.620;2023-03-12T10:07:27;11.43;;;9.73;;
12367;SDS011;6248;49.812;6.620;2023-03-12T10:10:05;13.03;;;9.57;;
12367;SDS011;6248;49.812;6.620;2023-03-12T10:12:39;10.83;;;8.50;;
12367;SDS011;6248;49.812;6.620;2023-03-12T10:15:13;14.07;;;9.00;;
12367;SDS011;6248;49.812;6.620;2023-03-12T10:17:44;13.33;;;8.77;;
12367;SDS011;6248;49.812;6.620;2023-03-12T10:20:29;14.03;;;8.53;;
12367;SDS011;6248;49.812;6.620;2023-03-12T10:23:02;13.13;;;8.27;;
12367;SDS011;6248;49.812;6.620;2023-03-12T10:25:33;11.57;;;7.73;;
12367;SDS011;6248;49.812;6.620;2023-03-12T10:28:05;10.93;;;8.83;;
12367;SDS011;6248;49.812;6.620;2023-03-12T10:30:37;11.77;;;7.37;;
12367;SDS011;6248;49.812;6.620;2023-03-12T10:33:09;12.63;;;7.70;;
12367;SDS011;6248;49.812;6.620;2023-03-12T10:35:37;14.40;;;7.90;;
12367;SDS011;6248;49.812;6.620;2023-03-12T10:38:09;15.23;;;7.20;;
12367;SDS011;6248;49.812;6.620;2023-03-12T10:40:39;12.13;;;6.73;;
12367;SDS011;6248;49.812;6.620;2023-03-12T10:43:06;9.87;;;6.83;;
12367;SDS011;6248;49.812;6.620;2023-03-12T10:45:35;16.07;;;7.43;;
12367;SDS011;6248;49.812;6.620;2023-03-12T10:48:05;12.50;;;6.60;;
12367;SDS011;6248;49.812;6.620;2023-03-12T10:50:35;13.43;;;7.50;;
12367;SDS011;6248;49.812;6.620;2023-03-12T10:56:01;17.00;;;6.67;;
12367;SDS011;6248;49.812;6.620;2023-03-12T10:58:33;10.47;;;5.93;;
12367;SDS011;6248;49.812;6.620;2023-03-12T11:01:00;13.00;;;6.37;;
12367;SDS011;6248;49.812;6.620;2023-03-12T11:03:28;11.60;;;6.33;;
12367;SDS011;6248;49.812;6.620;2023-03-12T11:05:57;10.80;;;5.00;;
12367;SDS011;6248;49.812;6.620;2023-03-12T11:08:26;10.53;;;4.80;;
12367;SDS011;6248;49.812;6.620;2023-03-12T11:10:53;12.07;;;5.07;;
12367;SDS011;6248;49.812;6.620;2023-03-12T11:13:24;11.83;;;4.77;;
12367;SDS011;6248;49.812;6.620;2023-03-12T11:15:51;13.27;;;4.20;;
12367;SDS011;6248;49.812;6.620;2023-03-12T11:18:21;13.63;;;4.73;;
12367;SDS011;6248;49.812;6.620;2023-03-12T11:20:49;9.67;;;3.67;;
12367;SDS011;6248;49.812;6.620;2023-03-12T11:23:19;16.53;;;4.73;;
12367;SDS011;6248;49.812;6.620;2023-03-12T11:25:49;12.57;;;3.90;;
12367;SDS011;6248;49.812;6.620;2023-03-12T11:28:19;14.40;;;3.83;;
12367;SDS011;6248;49.812;6.620;2023-03-12T11:30:49;16.20;;;4.30;;
12367;SDS011;6248;49.812;6.620;2023-03-12T11:33:18;13.67;;;4.20;;
12367;SDS011;6248;49.812;6.620;2023-03-12T11:35:47;16.37;;;4.13;;
12367;SDS011;6248;49.812;6.620;2023-03-12T11:38:16;16.67;;;3.90;;
12367;SDS011;6248;49.812;6.620;2023-03-12T11:40:50;14.13;;;3.87;;
12367;SDS011;6248;49.812;6.620;2023-03-12T11:43:25;14.30;;;4.10;;
12367;SDS011;6248;49.812;6.620;2023-03-12T11:46:01;13.47;;;3.60;;
12367;SDS011;6248;49.812;6.620;2023-03-12T11:48:32;11.00;;;3.80;;
12367;SDS011;6248;49.812;6.620;2023-03-12T11:51:05;14.77;;;3.63;;
12367;SDS011;6248;49.812;6.620;2023-03-12T11:53:40;15.27;;;3.33;;
12367;SDS011;6248;49.812;6.620;2023-03-12T11:56:12;14.87;;;3.60;;
12367;SDS011;6248;49.812;6.620;2023-03-12T11:58:44;10.57;;;3.27;;
12367;SDS011;6248;49.812;6.620;2023-03-12T12:01:20;12.47;;;3.70;;
12367;SDS011;6248;49.812;6.620;2023-03-12T12:06:39;12.10;;;3.30;;
12367;SDS011;6248;49.812;6.620;2023-03-12T12:09:13;10.20;;;3.13;;
12367;SDS011;6248;49.812;6.620;2023-03-12T12:11:45;11.33;;;3.67;;
12367;SDS011;6248;49.812;6.620;2023-03-12T12:14:19;16.33;;;4.03;;
12367;SDS011;6248;49.812;6.620;2023-03-12T12:16:53;13.40;;;3.60;;
12367;SDS011;6248;49.812;6.620;2023-03-12T12:19:28;14.40;;;3.57;;
12367;SDS011;6248;49.812;6.620;2023-03-12T12:22:01;12.00;;;3.20;;
12367;SDS011;6248;49.812;6.620;2023-03-12T12:24:34;12.50;;;3.80;;
12367;SDS011;6248;49.812;6.620;2023-03-12T12:27:04;13.07;;;3.63;;
12367;SDS011;6248;49.812;6.620;2023-03-12T12:29:42;15.30;;;4.30;;
12367;SDS011;6248;49.812;6.620;2023-03-12T12:32:16;10.77;;;4.23;;
12367;SDS011;6248;49.812;6.620;2023-03-12T12:34:51;10.27;;;3.77;;
12367;SDS011;6248;49.812;6.620;2023-03-12T12:37:28;14.43;;;4.20;;
12367;SDS011;6248;49.812;6.620;2023-03-12T12:39:58;15.03;;;4.17;;
12367;SDS011;6248;49.812;6.620;2023-03-12T12:42:29;13.00;;;3.33;;
12367;SDS011;6248;49.812;6.620;2023-03-12T12:44:58;10.17;;;3.40;;
12367;SDS011;6248;49.812;6.620;2023-03-12T12:47:34;13.70;;;3.67;;
12367;SDS011;6248;49.812;6.620;2023-03-12T12:50:03;9.23;;;3.23;;
12367;SDS011;6248;49.812;6.620;2023-03-12T12:52:31;11.53;;;3.17;;
12367;SDS011;6248;49.812;6.620;2023-03-12T12:54:59;11.07;;;3.43;;
12367;SDS011;6248;49.812;6.620;2023-03-12T12:57:33;13.30;;;3.13;;
12367;SDS011;6248;49.812;6.620;2023-03-12T13:02:53;13.47;;;3.87;;
12367;SDS011;6248;49.812;6.620;2023-03-12T13:05:24;14.03;;;3.33;;
12367;SDS011;6248;49.812;6.620;2023-03-12T13:07:52;11.80;;;3.57;;
12367;SDS011;6248;49.812;6.620;2023-03-12T13:10:39;12.63;;;3.37;;
12367;SDS011;6248;49.812;6.620;2023-03-12T13:13:11;11.83;;;3.20;;
12367;SDS011;6248;49.812;6.620;2023-03-12T13:15:39;12.83;;;3.10;;
12367;SDS011;6248;49.812;6.620;2023-03-12T13:18:16;11.57;;;3.47;;
12367;SDS011;6248;49.812;6.620;2023-03-12T13:20:45;9.53;;;3.03;;
12367;SDS011;6248;49.812;6.620;2023-03-12T13:23:29;11.77;;;3.13;;
12367;SDS011;6248;49.812;6.620;2023-03-12T13:25:59;10.53;;;3.30;;
12367;SDS011;6248;49.812;6.620;2023-03-12T13:28:31;10.47;;;2.80;;
12367;SDS011;6248;49.812;6.620;2023-03-12T13:31:00;10.10;;;2.63;;
12367;SDS011;6248;49.812;6.620;2023-03-12T13:33:39;14.30;;;3.47;;
12367;SDS011;6248;49.812;6.620;2023-03-12T13:36:19;11.10;;;3.37;;
12367;SDS011;6248;49.812;6.620;2023-03-12T13:38:52;13.90;;;3.53;;
12367;SDS011;6248;49.812;6.620;2023-03-12T13:41:28;17.17;;;4.07;;
12367;SDS011;6248;49.812;6.620;2023-03-12T13:43:56;14.50;;;3.50;;
12367;SDS011;6248;49.812;6.620;2023-03-12T13:46:27;13.17;;;3.90;;
12367;SDS011;6248;49.812;6.620;2023-03-12T13:48:58;14.63;;;3.80;;
12367;SDS011;6248;49.812;6.620;2023-03-12T13:51:26;16.60;;;3.80;;
12367;SDS011;6248;49.812;6.620;2023-03-12T13:53:54;12.97;;;3.77;;
12367;SDS011;6248;49.812;6.620;2023-03-12T13:56:24;10.13;;;3.17;;
12367;SDS011;6248;49.812;6.620;2023-03-12T13:58:53;12.93;;;3.60;;
12367;SDS011;6248;49.812;6.620;2023-03-12T14:01:22;13.13;;;3.60;;
12367;SDS011;6248;49.812;6.620;2023-03-12T14:03:51;11.70;;;3.50;;
12367;SDS011;6248;49.812;6.620;2023-03-12T14:06:22;10.57;;;3.10;;
12367;SDS011;6248;49.812;6.620;2023-03-12T14:08:55;11.80;;;3.10;;
12367;SDS011;6248;49.812;6.620;2023-03-12T14:11:29;15.20;;;3.60;;
12367;SDS011;6248;49.812;6.620;2023-03-12T14:14:06;10.77;;;3.33;;
12367;SDS011;6248;49.812;6.620;2023-03-12T14:16:35;11.70;;;3.30;;
12367;SDS011;6248;49.812;6.620;2023-03-12T14:19:05;15.33;;;4.27;;
12367;SDS011;6248;49.812;6.620;2023-03-12T14:21:35;12.73;;;3.53;;
12367;SDS011;6248;49.812;6.620;2023-03-12T14:24:04;18.80;;;4.50;;
12367;SDS011;6248;49.812;6.620;2023-03-12T14:26:32;15.83;;;4.17;;
12367;SDS011;6248;49.812;6.620;2023-03-12T14:29:01;13.83;;;4.00;;
12367;SDS011;6248;49.812;6.620;2023-03-12T14:31:31;14.20;;;3.87;;
12367;SDS011;6248;49.812;6.620;2023-03-12T14:33:59;18.47;;;4.70;;
12367;SDS011;6248;49.812;6.620;2023-03-12T14:36:29;14.30;;;4.13;;
12367;SDS011;6248;49.812;6.620;2023-03-12T14:39:09;11.93;;;4.37;;
12367;SDS011;6248;49.812;6.620;2023-03-12T14:41:38;11.23;;;3.80;;
12367;SDS011;6248;49.812;6.620;2023-03-12T14:44:16;14.30;;;3.93;;
12367;SDS011;6248;49.812;6.620;2023-03-12T14:46:46;12.93;;;3.70;;
12367;SDS011;6248;49.812;6.620;2023-03-12T14:49:20;15.03;;;3.80;;
12367;SDS011;6248;49.812;6.620;2023-03-12T14:51:48;17.37;;;3.93;;
12367;SDS011;6248;49.812;6.620;2023-03-12T14:54:17;16.70;;;4.10;;
12367;SDS011;6248;49.812;6.620;2023-03-12T14:56:44;11.93;;;3.57;;
12367;SDS011;6248;49.812;6.620;2023-03-12T14:59:19;10.43;;;3.30;;
12367;SDS011;6248;49.812;6.620;2023-03-12T15:01:47;17.20;;;3.97;;
12367;SDS011;6248;49.812;6.620;2023-03-12T15:04:15;12.73;;;4.47;;
12367;SDS011;6248;49.812;6.620;2023-03-12T15:06:43;12.77;;;4.07;;
12367;SDS011;6248;49.812;6.620;2023-03-12T15:09:13;12.83;;;3.47;;